sensor_id;sensor_type;location;lat;lon;timestamp;P1;durP1;ratioP1;P2;durP2;ratioP2
51491;SDS011;37569;50.548;8.778;2023-04-07T00:02:48;23.9;;;16.8;;
51491;SDS011;37569;50.548;8.778;2023-04-07T00:07:48;25.8;;;17.4;;
51491;SDS011;37569;50.548;8.778;2023-04-07T00:12:48;25.3;;;17.7;;
51491;SDS011;37569;50.548;8.778;2023-04-07T00:17:49;28.2;;;19.1;;
51491;SDS011;37569;50.548;8.778;2023-04-07T00:22:49;30;;;19.9;;
51491;SDS011;37569;50.548;8.778;2023-04-07T00:27:49;28.2;;;19.4;;
51491;SDS011;37569;50.548;8.778;2023-04-07T00:32:50;27.4;;;19.1;;
51491;SDS011;37569;50.548;8.778;2023-04-07T00:37:50;28.1;;;19.5;;
51491;SDS011;37569;50.548;8.778;2023-04-07T00:42:51;27.6;;;18.4;;
51491;SDS011;37569;50.548;8.778;2023-04-07T00:47:50;28.1;;;19.3;;
51491;SDS011;37569;50.548;8.778;2023-04-07T00:52:51;27.4;;;18.8;;
51491;SDS011;37569;50.548;8.778;2023-04-07T00:57:51;28.8;;;19.2;;
51491;SDS011;37569;50.548;8.778;2023-04-07T01:02:54;30.5;;;19.7;;
51491;SDS011;37569;50.548;8.778;2023-04-07T01:07:54;28.9;;;18.8;;
51491;SDS011;37569;50.548;8.778;2023-04-07T01:12:53;29.7;;;19.1;;
51491;SDS011;37569;50.548;8.778;2023-04-07T01:17:54;29.1;;;19.6;;
51491;SDS011;37569;50.548;8.778;2023-04-07T01:22:53;25.4;;;18.9;;
51491;SDS011;37569;50.548;8.778;2023-04-07T01:27:57;25;;;17.6;;
51491;SDS011;37569;50.548;8.778;2023-04-07T01:32:53;25.7;;;18.1;;
51491;SDS011;37569;50.548;8.778;2023-04-07T01:37:53;25.9;;;17.1;;
51491;SDS011;37569;50.548;8.778;2023-04-07T01:42:54;27.3;;;18;;
51491;SDS011;37569;50.548;8.778;2023-04-07T01:47:54;25.4;;;17.4;;
51491;SDS011;37569;50.548;8.778;2023-04-07T01:52:54;23;;;16.9;;
51491;SDS011;37569;50.548;8.778;2023-04-07T01:57:54;23.6;;;15.7;;
51491;SDS011;37569;50.548;8.778;2023-04-07T02:02:56;24.9;;;16.9;;
51491;SDS011;37569;50.548;8.778;2023-04-07T02:07:57;23.7;;;16.5;;
51491;SDS011;37569;50.548;8.778;2023-04-07T02:12:55;25.2;;;17;;
51491;SDS011;37569;50.548;8.778;2023-04-07T02:17:56;26.4;;;17.5;;
51491;SDS011;37569;50.548;8.778;2023-04-07T02:22:56;23;;;15.8;;
51491;SDS011;37569;50.548;8.778;2023-04-07T02:27:56;22.3;;;15.5;;
51491;SDS011;37569;50.548;8.778;2023-04-07T02:32:56;22.6;;;16.1;;
51491;SDS011;37569;50.548;8.778;2023-04-07T02:37:56;26.2;;;16.5;;
51491;SDS011;37569;50.548;8.778;2023-04-07T02:42:57;23.2;;;15.1;;
51491;SDS011;37569;50.548;8.778;2023-04-07T02:47:57;21.5;;;15.2;;
51491;SDS011;37569;50.548;8.778;2023-04-07T02:52:57;23.1;;;14.7;;
51491;SDS011;37569;50.548;8.778;2023-04-07T02:57:58;22.1;;;14.8;;
51491;SDS011;37569;50.548;8.778;2023-04-07T03:02:58;22.1;;;14.2;;
51491;SDS011;37569;50.548;8.778;2023-04-07T03:07:58;20;;;14.2;;
51491;SDS011;37569;50.548;8.778;2023-04-07T03:12:58;19.8;;;14.5;;
51491;SDS011;37569;50.548;8.778;2023-04-07T03:17:59;19.8;;;13.9;;
51491;SDS011;37569;50.548;8.778;2023-04-07T03:22:59;20.8;;;14.9;;
51491;SDS011;37569;50.548;8.778;2023-04-07T03:27:59;21.7;;;13.9;;
51491;SDS011;37569;50.548;8.778;2023-04-07T03:32:59;19.7;;;13.5;;
51491;SDS011;37569;50.548;8.778;2023-04-07T03:38:00;20.3;;;13.8;;
51491;SDS011;37569;50.548;8.778;2023-04-07T03:43:00;21.6;;;13.4;;
51491;SDS011;37569;50.548;8.778;2023-04-07T03:48:00;19.8;;;13.3;;
51491;SDS011;37569;50.548;8.778;2023-04-07T03:53:01;17.9;;;12.7;;
51491;SDS011;37569;50.548;8.778;2023-04-07T03:58:01;16.9;;;12.5;;
51491;SDS011;37569;50.548;8.778;2023-04-07T04:03:01;17.7;;;12.6;;
51491;SDS011;37569;50.548;8.778;2023-04-07T04:08:02;18.4;;;12.7;;
51491;SDS011;37569;50.548;8.778;2023-04-07T04:13:02;17.8;;;12.5;;
51491;SDS011;37569;50.548;8.778;2023-04-07T04:18:02;18.9;;;12.8;;
51491;SDS011;37569;50.548;8.778;2023-04-07T04:23:02;17.3;;;12.6;;
51491;SDS011;37569;50.548;8.778;2023-04-07T04:28:02;17.7;;;13.1;;
51491;SDS011;37569;50.548;8.778;2023-04-07T04:33:03;17.2;;;12.3;;
51491;SDS011;37569;50.548;8.778;2023-04-07T04:38:03;17.2;;;12.6;;
51491;SDS011;37569;50.548;8.778;2023-04-07T04:43:03;17.1;;;12.3;;
51491;SDS011;37569;50.548;8.778;2023-04-07T04:48:03;17.3;;;12.9;;
51491;SDS011;37569;50.548;8.778;2023-04-07T04:53:04;18.8;;;12.9;;
51491;SDS011;37569;50.548;8.778;2023-04-07T04:58:04;17.2;;;11.7;;
51491;SDS011;37569;50.548;8.778;2023-04-07T05:03:04;17.1;;;13;;
51491;SDS011;37569;50.548;8.778;2023-04-07T05:08:05;16.4;;;12.1;;
51491;SDS011;37569;50.548;8.778;2023-04-07T05:13:05;16.2;;;12.2;;
51491;SDS011;37569;50.548;8.778;2023-04-07T05:18:05;15.7;;;12;;
51491;SDS011;37569;50.548;8.778;2023-04-07T05:23:05;17.1;;;12.2;;
51491;SDS011;37569;50.548;8.778;2023-04-07T05:28:06;17.2;;;11.8;;
51491;SDS011;37569;50.548;8.778;2023-04-07T05:33:06;17.9;;;12.1;;
51491;SDS011;37569;50.548;8.778;2023-04-07T05:38:06;16.2;;;11.7;;
51491;SDS011;37569;50.548;8.778;2023-04-07T05:43:07;15.5;;;11.8;;
51491;SDS011;37569;50.548;8.778;2023-04-07T05:48:07;16.7;;;11.4;;
51491;SDS011;37569;50.548;8.778;2023-04-07T05:53:07;15.3;;;11.4;;
51491;SDS011;37569;50.548;8.778;2023-04-07T05:58:07;15.6;;;11;;
51491;SDS011;37569;50.548;8.778;2023-04-07T06:03:08;15.1;;;10.8;;
51491;SDS011;37569;50.548;8.778;2023-04-07T06:08:08;15.5;;;10.3;;
51491;SDS011;37569;50.548;8.778;2023-04-07T06:13:08;14.3;;;10.5;;
51491;SDS011;37569;50.548;8.778;2023-04-07T06:18:09;16.3;;;11;;
51491;SDS011;37569;50.548;8.778;2023-04-07T06:23:09;13;;;10.3;;
51491;SDS011;37569;50.548;8.778;2023-04-07T06:28:09;12.4;;;9.5;;
51491;SDS011;37569;50.548;8.778;2023-04-07T06:33:10;12.6;;;9.4;;
51491;SDS011;37569;50.548;8.778;2023-04-07T06:38:10;13.3;;;9.9;;
51491;SDS011;37569;50.548;8.778;2023-04-07T06:43:10;11.7;;;8.8;;
51491;SDS011;37569;50.548;8.778;2023-04-07T06:48:11;12.1;;;9.1;;
51491;SDS011;37569;50.548;8.778;2023-04-07T06:53:11;11.8;;;8.8;;
51491;SDS011;37569;50.548;8.778;2023-04-07T06:58:11;12.7;;;9.4;;
51491;SDS011;37569;50.548;8.778;2023-04-07T07:03:11;11.6;;;8.9;;
51491;SDS011;37569;50.548;8.778;2023-04-07T07:08:12;10.9;;;8.7;;
51491;SDS011;37569;50.548;8.778;2023-04-07T07:13:12;11.8;;;8.6;;
51491;SDS011;37569;50.548;8.778;2023-04-07T07:18:12;11;;;8.4;;
51491;SDS011;37569;50.548;8.778;2023-04-07T07:23:13;12.7;;;8.8;;
51491;SDS011;37569;50.548;8.778;2023-04-07T07:28:13;11.1;;;8.7;;
51491;SDS011;37569;50.548;8.778;2023-04-07T07:33:13;10.5;;;8.7;;
51491;SDS011;37569;50.548;8.778;2023-04-07T07:38:14;12.1;;;8.4;;
51491;SDS011;37569;50.548;8.778;2023-04-07T07:43:14;10.2;;;8.6;;
51491;SDS011;37569;50.548;8.778;2023-04-07T07:48:14;11.8;;;9.3;;
51491;SDS011;37569;50.548;8.778;2023-04-07T07:53:14;10.4;;;8.2;;
51491;SDS011;37569;50.548;8.778;2023-04-07T07:58:15;13.8;;;10.2;;
51491;SDS011;37569;50.548;8.778;2023-04-07T08:03:15;12;;;8.8;;
51491;SDS011;37569;50.548;8.778;2023-04-07T08:08:15;12.5;;;9.2;;
51491;SDS011;37569;50.548;8.778;2023-04-07T08:13:16;11.1;;;8.9;;
51491;SDS011;37569;50.548;8.778;2023-04-07T08:18:16;10.9;;;8.7;;
51491;SDS011;37569;50.548;8.778;2023-04-07T08:23:16;12.2;;;8.8;;
51491;SDS011;37569;50.548;8.778;2023-04-07T08:28:17;11;;;8.9;;
51491;SDS011;37569;50.548;8.778;2023-04-07T08:33:17;12.8;;;9.7;;
51491;SDS011;37569;50.548;8.778;2023-04-07T08:38:17;11.2;;;8.4;;
51491;SDS011;37569;50.548;8.778;2023-04-07T08:43:17;11.4;;;8.8;;
51491;SDS011;37569;50.548;8.778;2023-04-07T08:48:18;11.2;;;8.7;;
51491;SDS011;37569;50.548;8.778;2023-04-07T08:53:20;13;;;9.1;;
51491;SDS011;37569;50.548;8.778;2023-04-07T08:58:18;12.3;;;9.2;;
51491;SDS011;37569;50.548;8.778;2023-04-07T09:03:19;12.3;;;9.5;;
51491;SDS011;37569;50.548;8.778;2023-04-07T09:08:19;12;;;8.5;;
51491;SDS011;37569;50.548;8.778;2023-04-07T09:13:19;10.9;;;8.5;;
51491;SDS011;37569;50.548;8.778;2023-04-07T09:18:20;14;;;9.6;;
51491;SDS011;37569;50.548;8.778;2023-04-07T09:23:26;12.4;;;9.3;;
51491;SDS011;37569;50.548;8.778;2023-04-07T09:28:20;10.7;;;8.5;;
51491;SDS011;37569;50.548;8.778;2023-04-07T09:33:25;14.2;;;8.8;;
51491;SDS011;37569;50.548;8.778;2023-04-07T09:38:21;10.8;;;8.5;;
51491;SDS011;37569;50.548;8.778;2023-04-07T09:43:22;11.1;;;8.9;;
51491;SDS011;37569;50.548;8.778;2023-04-07T09:48:22;11;;;8.6;;
51491;SDS011;37569;50.548;8.778;2023-04-07T09:53:24;11.2;;;8.5;;
51491;SDS011;37569;50.548;8.778;2023-04-07T09:58:23;12.2;;;8.9;;
51491;SDS011;37569;50.548;8.778;2023-04-07T10:03:23;10.5;;;8.1;;
51491;SDS011;37569;50.548;8.778;2023-04-07T10:08:23;10.4;;;8.3;;
51491;SDS011;37569;50.548;8.778;2023-04-07T10:13:24;9.5;;;7.3;;
51491;SDS011;37569;50.548;8.778;2023-04-07T10:18:25;10;;;8.3;;
51491;SDS011;37569;50.548;8.778;2023-04-07T10:23:25;11.9;;;8.4;;
51491;SDS011;37569;50.548;8.778;2023-04-07T10:28:26;10.5;;;8;;
51491;SDS011;37569;50.548;8.778;2023-04-07T10:33:42;9.2;;;8;;
51491;SDS011;37569;50.548;8.778;2023-04-07T10:38:26;9.8;;;7.9;;
51491;SDS011;37569;50.548;8.778;2023-04-07T10:43:35;13.1;;;8.9;;
51491;SDS011;37569;50.548;8.778;2023-04-07T10:48:26;10;;;7.8;;
51491;SDS011;37569;50.548;8.778;2023-04-07T10:53:27;9.8;;;7.7;;
51491;SDS011;37569;50.548;8.778;2023-04-07T10:58:27;9;;;7;;
51491;SDS011;37569;50.548;8.778;2023-04-07T11:03:28;9.6;;;7.1;;
51491;SDS011;37569;50.548;8.778;2023-04-07T11:08:31;7.9;;;6.4;;
51491;SDS011;37569;50.548;8.778;2023-04-07T11:13:28;7.3;;;6.2;;
51491;SDS011;37569;50.548;8.778;2023-04-07T11:18:29;8.4;;;6.9;;
51491;SDS011;37569;50.548;8.778;2023-04-07T11:23:29;7.9;;;7;;
51491;SDS011;37569;50.548;8.778;2023-04-07T11:28:29;9.2;;;7.3;;
51491;SDS011;37569;50.548;8.778;2023-04-07T11:33:30;20.3;;;14.1;;
51491;SDS011;37569;50.548;8.778;2023-04-07T11:38:33;8.7;;;7.2;;
51491;SDS011;37569;50.548;8.778;2023-04-07T11:43:30;8.9;;;7.5;;
51491;SDS011;37569;50.548;8.778;2023-04-07T11:48:31;9.4;;;7.1;;
51491;SDS011;37569;50.548;8.778;2023-04-07T11:53:31;8.6;;;7.2;;
51491;SDS011;37569;50.548;8.778;2023-04-07T11:58:31;8.2;;;6.9;;
51491;SDS011;37569;50.548;8.778;2023-04-07T12:03:32;7.9;;;7;;
51491;SDS011;37569;50.548;8.778;2023-04-07T12:08:35;9.3;;;7.4;;
51491;SDS011;37569;50.548;8.778;2023-04-07T12:13:32;8.9;;;7.5;;
51491;SDS011;37569;50.548;8.778;2023-04-07T12:18:32;9.1;;;7.4;;
51491;SDS011;37569;50.548;8.778;2023-04-07T12:23:33;8.8;;;7.5;;
51491;SDS011;37569;50.548;8.778;2023-04-07T12:28:33;7.9;;;6.8;;
51491;SDS011;37569;50.548;8.778;2023-04-07T12:33:33;7.8;;;7;;
51491;SDS011;37569;50.548;8.778;2023-04-07T12:38:34;8;;;7.1;;
51491;SDS011;37569;50.548;8.778;2023-04-07T12:43:34;7.7;;;6.2;;
51491;SDS011;37569;50.548;8.778;2023-04-07T12:48:34;7;;;6.3;;
51491;SDS011;37569;50.548;8.778;2023-04-07T12:53:35;5.7;;;5.2;;
51491;SDS011;37569;50.548;8.778;2023-04-07T12:58:35;6.2;;;5.4;;
51491;SDS011;37569;50.548;8.778;2023-04-07T13:03:36;4.7;;;4.3;;
51491;SDS011;37569;50.548;8.778;2023-04-07T13:08:36;4.9;;;4.4;;
51491;SDS011;37569;50.548;8.778;2023-04-07T13:13:37;5.1;;;4.5;;
51491;SDS011;37569;50.548;8.778;2023-04-07T13:18:37;6.1;;;4.9;;
51491;SDS011;37569;50.548;8.778;2023-04-07T13:23:37;5.4;;;4.9;;
51491;SDS011;37569;50.548;8.778;2023-04-07T13:28:38;4.9;;;4.3;;
51491;SDS011;37569;50.548;8.778;2023-04-07T13:33:38;5;;;4.5;;
51491;SDS011;37569;50.548;8.778;2023-04-07T13:38:39;4.6;;;4.1;;
51491;SDS011;37569;50.548;8.778;2023-04-07T13:43:39;4.1;;;3.7;;
51491;SDS011;37569;50.548;8.778;2023-04-07T13:48:40;3.7;;;3.4;;
51491;SDS011;37569;50.548;8.778;2023-04-07T13:53:40;4;;;3.6;;
51491;SDS011;37569;50.548;8.778;2023-04-07T13:58:41;4.3;;;3.5;;
51491;SDS011;37569;50.548;8.778;2023-04-07T14:03:41;5.7;;;4.8;;
51491;SDS011;37569;50.548;8.778;2023-04-07T14:08:42;5;;;4.5;;
51491;SDS011;37569;50.548;8.778;2023-04-07T14:13:42;3.9;;;3.5;;
51491;SDS011;37569;50.548;8.778;2023-04-07T14:18:43;3.3;;;3;;
51491;SDS011;37569;50.548;8.778;2023-04-07T14:23:43;3.4;;;3.1;;
51491;SDS011;37569;50.548;8.778;2023-04-07T14:28:43;3.2;;;2.9;;
51491;SDS011;37569;50.548;8.778;2023-04-07T14:33:44;3.3;;;3;;
51491;SDS011;37569;50.548;8.778;2023-04-07T14:38:44;3;;;2.8;;
51491;SDS011;37569;50.548;8.778;2023-04-07T14:43:45;4.1;;;3.7;;
51491;SDS011;37569;50.548;8.778;2023-04-07T14:48:45;3.6;;;3.3;;
51491;SDS011;37569;50.548;8.778;2023-04-07T14:53:46;5.7;;;4.8;;
51491;SDS011;37569;50.548;8.778;2023-04-07T14:58:46;5.4;;;4.5;;
51491;SDS011;37569;50.548;8.778;2023-04-07T15:03:47;5.6;;;4.9;;
51491;SDS011;37569;50.548;8.778;2023-04-07T15:08:47;5.7;;;5.1;;
51491;SDS011;37569;50.548;8.778;2023-04-07T15:13:47;5.4;;;4.7;;
51491;SDS011;37569;50.548;8.778;2023-04-07T15:18:48;5.5;;;4.9;;
51491;SDS011;37569;50.548;8.778;2023-04-07T15:23:48;5.6;;;4.6;;
51491;SDS011;37569;50.548;8.778;2023-04-07T15:28:49;5.3;;;4.5;;
51491;SDS011;37569;50.548;8.778;2023-04-07T15:33:49;4.5;;;4.1;;
51491;SDS011;37569;50.548;8.778;2023-04-07T15:38:49;4;;;3.6;;
51491;SDS011;37569;50.548;8.778;2023-04-07T15:43:50;5.8;;;4.7;;
51491;SDS011;37569;50.548;8.778;2023-04-07T15:48:50;8.5;;;5.9;;
51491;SDS011;37569;50.548;8.778;2023-04-07T15:53:51;6.9;;;5.7;;
51491;SDS011;37569;50.548;8.778;2023-04-07T15:58:51;5.6;;;5;;
51491;SDS011;37569;50.548;8.778;2023-04-07T16:03:51;6.9;;;5.6;;
51491;SDS011;37569;50.548;8.778;2023-04-07T16:08:52;6.9;;;5;;
51491;SDS011;37569;50.548;8.778;2023-04-07T16:13:52;8.7;;;6.6;;
51491;SDS011;37569;50.548;8.778;2023-04-07T16:18:52;9.2;;;7.4;;
51491;SDS011;37569;50.548;8.778;2023-04-07T16:23:53;7.6;;;5.5;;
51491;SDS011;37569;50.548;8.778;2023-04-07T16:28:53;6.7;;;6;;
51491;SDS011;37569;50.548;8.778;2023-04-07T16:33:54;9;;;6.9;;
51491;SDS011;37569;50.548;8.778;2023-04-07T16:38:54;8.8;;;6.7;;
51491;SDS011;37569;50.548;8.778;2023-04-07T16:43:55;7.2;;;6.1;;
51491;SDS011;37569;50.548;8.778;2023-04-07T16:48:55;6.4;;;5.4;;
51491;SDS011;37569;50.548;8.778;2023-04-07T16:53:55;8.3;;;7;;
51491;SDS011;37569;50.548;8.778;2023-04-07T16:58:56;6.6;;;5.6;;
51491;SDS011;37569;50.548;8.778;2023-04-07T17:03:56;6.6;;;5.5;;
51491;SDS011;37569;50.548;8.778;2023-04-07T17:08:56;7.7;;;6.3;;
51491;SDS011;37569;50.548;8.778;2023-04-07T17:13:57;6.1;;;5.5;;
51491;SDS011;37569;50.548;8.778;2023-04-07T17:18:57;8.3;;;7.3;;
51491;SDS011;37569;50.548;8.778;2023-04-07T17:23:58;8.9;;;7.2;;
51491;SDS011;37569;50.548;8.778;2023-04-07T17:28:58;7.2;;;6;;
51491;SDS011;37569;50.548;8.778;2023-04-07T17:33:58;5.6;;;5;;
51491;SDS011;37569;50.548;8.778;2023-04-07T17:38:59;7.1;;;5.9;;
51491;SDS011;37569;50.548;8.778;2023-04-07T17:43:59;5.5;;;4.9;;
51491;SDS011;37569;50.548;8.778;2023-04-07T17:49:00;6.8;;;5.4;;
51491;SDS011;37569;50.548;8.778;2023-04-07T17:54:00;7.3;;;5.6;;
51491;SDS011;37569;50.548;8.778;2023-04-07T17:59:00;6.5;;;5.4;;
51491;SDS011;37569;50.548;8.778;2023-04-07T18:04:01;6.1;;;4.6;;
51491;SDS011;37569;50.548;8.778;2023-04-07T18:09:01;7.6;;;5.5;;
51491;SDS011;37569;50.548;8.778;2023-04-07T18:14:02;8.3;;;5.5;;
51491;SDS011;37569;50.548;8.778;2023-04-07T18:19:02;5;;;4.3;;
51491;SDS011;37569;50.548;8.778;2023-04-07T18:24:02;6;;;4.3;;
51491;SDS011;37569;50.548;8.778;2023-04-07T18:29:03;6.8;;;4.8;;
51491;SDS011;37569;50.548;8.778;2023-04-07T18:34:03;7;;;5.3;;
51491;SDS011;37569;50.548;8.778;2023-04-07T18:39:03;5;;;4.2;;
51491;SDS011;37569;50.548;8.778;2023-04-07T18:44:04;5.1;;;4.4;;
51491;SDS011;37569;50.548;8.778;2023-04-07T18:49:04;6.6;;;5.3;;
51491;SDS011;37569;50.548;8.778;2023-04-07T18:54:05;7.7;;;5.5;;
51491;SDS011;37569;50.548;8.778;2023-04-07T18:59:05;6.9;;;5.3;;
51491;SDS011;37569;50.548;8.778;2023-04-07T19:04:05;6.5;;;5.3;;
51491;SDS011;37569;50.548;8.778;2023-04-07T19:09:06;5;;;4.5;;
51491;SDS011;37569;50.548;8.778;2023-04-07T19:14:06;4.3;;;3.6;;
51491;SDS011;37569;50.548;8.778;2023-04-07T19:19:06;3.8;;;3.2;;
51491;SDS011;37569;50.548;8.778;2023-04-07T19:24:07;4.3;;;3.9;;
51491;SDS011;37569;50.548;8.778;2023-04-07T19:29:07;4.1;;;3.7;;
51491;SDS011;37569;50.548;8.778;2023-04-07T19:34:07;4.5;;;4;;
51491;SDS011;37569;50.548;8.778;2023-04-07T19:39:07;5;;;4;;
51491;SDS011;37569;50.548;8.778;2023-04-07T19:44:08;5.8;;;4.4;;
51491;SDS011;37569;50.548;8.778;2023-04-07T19:49:08;6.9;;;5.6;;
51491;SDS011;37569;50.548;8.778;2023-04-07T19:54:08;6.5;;;4.5;;
51491;SDS011;37569;50.548;8.778;2023-04-07T19:59:08;6.2;;;5;;
51491;SDS011;37569;50.548;8.778;2023-04-07T20:04:09;6.7;;;5.5;;
51491;SDS011;37569;50.548;8.778;2023-04-07T20:09:09;7.4;;;5.8;;
51491;SDS011;37569;50.548;8.778;2023-04-07T20:14:09;7.4;;;6.2;;
51491;SDS011;37569;50.548;8.778;2023-04-07T20:19:10;7.1;;;6.3;;
51491;SDS011;37569;50.548;8.778;2023-04-07T20:24:10;7.4;;;6.1;;
51491;SDS011;37569;50.548;8.778;2023-04-07T20:29:10;8;;;6.7;;
51491;SDS011;37569;50.548;8.778;2023-04-07T20:34:10;7.3;;;6.5;;
51491;SDS011;37569;50.548;8.778;2023-04-07T20:39:11;9.3;;;7.5;;
51491;SDS011;37569;50.548;8.778;2023-04-07T20:44:11;16.1;;;10.1;;
51491;SDS011;37569;50.548;8.778;2023-04-07T20:49:11;17.7;;;10.5;;
51491;SDS011;37569;50.548;8.778;2023-04-07T20:54:12;8.6;;;7.1;;
51491;SDS011;37569;50.548;8.778;2023-04-07T20:59:12;8.9;;;7.2;;
51491;SDS011;37569;50.548;8.778;2023-04-07T21:04:12;8.3;;;7;;
51491;SDS011;37569;50.548;8.778;2023-04-07T21:09:12;10.5;;;8.6;;
51491;SDS011;37569;50.548;8.778;2023-04-07T21:14:13;9.5;;;8.1;;
51491;SDS011;37569;50.548;8.778;2023-04-07T21:19:13;9.5;;;7.6;;
51491;SDS011;37569;50.548;8.778;2023-04-07T21:24:13;8.9;;;7.3;;
51491;SDS011;37569;50.548;8.778;2023-04-07T21:29:13;8.9;;;6.8;;
51491;SDS011;37569;50.548;8.778;2023-04-07T21:34:14;9.4;;;7.6;;
51491;SDS011;37569;50.548;8.778;2023-04-07T21:39:14;11.3;;;8;;
51491;SDS011;37569;50.548;8.778;2023-04-07T21:44:14;7.7;;;6.4;;
51491;SDS011;37569;50.548;8.778;2023-04-07T21:49:14;7.1;;;6.4;;
51491;SDS011;37569;50.548;8.778;2023-04-07T21:54:14;7.9;;;6.2;;
51491;SDS011;37569;50.548;8.778;2023-04-07T21:59:15;8.2;;;6.8;;
51491;SDS011;37569;50.548;8.778;2023-04-07T22:04:15;9;;;7.4;;
51491;SDS011;37569;50.548;8.778;2023-04-07T22:09:15;10.6;;;7.4;;
51491;SDS011;37569;50.548;8.778;2023-04-07T22:14:15;8;;;6.6;;
51491;SDS011;37569;50.548;8.778;2023-04-07T22:19:16;7.1;;;6.4;;
51491;SDS011;37569;50.548;8.778;2023-04-07T22:24:16;8.3;;;7.2;;
51491;SDS011;37569;50.548;8.778;2023-04-07T22:29:16;10.7;;;8.7;;
51491;SDS011;37569;50.548;8.778;2023-04-07T22:34:16;11.6;;;8.9;;
51491;SDS011;37569;50.548;8.778;2023-04-07T22:39:17;10;;;8.3;;
51491;SDS011;37569;50.548;8.778;2023-04-07T22:44:17;9.3;;;7.8;;
51491;SDS011;37569;50.548;8.778;2023-04-07T22:49:17;9.4;;;7.9;;
51491;SDS011;37569;50.548;8.778;2023-04-07T22:54:17;11.1;;;8.9;;
51491;SDS011;37569;50.548;8.778;2023-04-07T22:59:18;9.6;;;8.3;;
51491;SDS011;37569;50.548;8.778;2023-04-07T23:04:19;9.6;;;7.8;;
51491;SDS011;37569;50.548;8.778;2023-04-07T23:09:18;8;;;7;;
51491;SDS011;37569;50.548;8.778;2023-04-07T23:14:18;9.8;;;7.4;;
51491;SDS011;37569;50.548;8.778;2023-04-07T23:19:19;9.3;;;7.2;;
51491;SDS011;37569;50.548;8.778;2023-04-07T23:24:19;8.1;;;6.8;;
51491;SDS011;37569;50.548;8.778;2023-04-07T23:29:19;8.1;;;6.9;;
51491;SDS011;37569;50.548;8.778;2023-04-07T23:34:19;10.4;;;8.4;;
51491;SDS011;37569;50.548;8.778;2023-04-07T23:39:19;11.2;;;8.6;;
51491;SDS011;37569;50.548;8.778;2023-04-07T23:44:20;12.9;;;9.9;;
51491;SDS011;37569;50.548;8.778;2023-04-07T23:49:20;15.3;;;10;;
51491;SDS011;37569;50.548;8.778;2023-04-07T23:54:20;19;;;9.3;;
51491;SDS011;37569;50.548;8.778;2023-04-07T23:59:20;12.5;;;9.8;;
